Time;durP1;ratioP1;P1;durP2;ratioP2;P2;SDS_P1;SDS_P2;PMS_P1;PMS_P2;Temp;Humidity;BMP_temperature;BMP_pressure;BME280_temperature;BME280_humidity;BME280_pressure;Samples;Min_cycle;Max_cycle;Signal;HPM_P1;HPM_P2
2023/12/11 00:00:27;;;;;;;51.00;23.50;;;;;;;3.40;100.00;98249.88;5049785;28;20621;-57
2023/12/11 00:02:53;;;;;;;51.83;24.20;;;;;;;4.00;100.00;98335.06;5049800;28;20174;-57
2023/12/11 00:05:18;;;;;;;41.78;20.35;;;;;;;4.02;100.00;98343.50;5049660;28;20204;-57
2023/12/11 00:07:48;;;;;;;44.33;21.75;;;;;;;3.91;100.00;98327.78;5049610;28;20213;-56
2023/12/11 00:10:14;;;;;;;43.83;20.48;;;;;;;3.68;100.00;98304.09;5049571;28;20186;-56
2023/12/11 00:12:40;;;;;;;39.67;20.25;;;;;;;3.73;100.00;98308.09;5049645;28;20247;-56
2023/12/11 00:15:06;;;;;;;37.75;19.10;;;;;;;3.85;100.00;98320.34;5049563;28;20227;-57
2023/12/11 00:17:31;;;;;;;39.42;19.55;;;;;;;3.91;100.00;98348.25;5049364;28;20181;-57
2023/12/11 00:19:57;;;;;;;36.28;18.38;;;;;;;3.55;100.00;98318.31;5049808;28;20181;-57
2023/12/11 00:22:22;;;;;;;35.13;17.85;;;;;;;3.60;100.00;98319.75;5049442;28;20280;-57
2023/12/11 00:24:48;;;;;;;34.35;17.48;;;;;;;3.15;100.00;98267.97;5049444;28;20174;-57
2023/12/11 00:27:13;;;;;;;36.50;17.33;;;;;;;3.61;100.00;98328.28;5050876;28;20723;-57
2023/12/11 00:29:39;;;;;;;36.08;17.60;;;;;;;3.27;100.00;98282.78;5051787;28;20165;-57
2023/12/11 00:32:05;;;;;;;33.80;17.25;;;;;;;3.80;100.00;98360.66;5051757;28;20256;-57
2023/12/11 00:34:32;;;;;;;33.45;16.73;;;;;;;3.59;100.00;98325.78;5051694;28;20178;-57
2023/12/11 00:36:58;;;;;;;33.70;17.02;;;;;;;3.36;100.00;98302.88;5029133;28;20217;-57
2023/12/11 00:39:24;;;;;;;32.95;17.42;;;;;;;3.44;100.00;98321.28;5029304;28;20665;-57
2023/12/11 00:41:50;;;;;;;33.35;16.65;;;;;;;3.39;100.00;98304.47;5029196;28;20186;-57
2023/12/11 00:44:15;;;;;;;31.90;17.45;;;;;;;3.96;100.00;98396.69;5029172;28;20607;-57
2023/12/11 00:46:41;;;;;;;36.15;19.15;;;;;;;3.67;100.00;98354.41;5029082;28;20214;-57
2023/12/11 00:49:06;;;;;;;36.20;18.70;;;;;;;3.84;100.00;98389.53;5029094;28;20182;-57
2023/12/11 00:51:32;;;;;;;36.22;18.05;;;;;;;3.60;100.00;98347.03;5029028;28;20202;-57
2023/12/11 00:53:57;;;;;;;38.05;18.63;;;;;;;3.24;100.00;98303.38;5029163;28;20178;-57
2023/12/11 00:56:22;;;;;;;35.00;17.23;;;;;;;3.67;100.00;98380.00;5029036;28;20297;-57
2023/12/11 00:58:48;;;;;;;37.17;17.77;;;;;;;3.22;100.00;98325.59;5029042;28;20175;-57
2023/12/11 01:01:13;;;;;;;31.98;16.88;;;;;;;3.20;100.00;98314.63;5028878;28;20182;-57
2023/12/11 01:03:39;;;;;;;32.95;17.13;;;;;;;3.49;100.00;98357.72;5028947;28;20653;-57
2023/12/11 01:06:05;;;;;;;37.95;17.95;;;;;;;3.33;100.00;98327.75;5028936;28;20240;-57
2023/12/11 01:08:32;;;;;;;37.97;17.42;;;;;;;3.13;100.00;98299.59;5045703;28;20220;-57
2023/12/11 01:10:58;;;;;;;31.40;17.33;;;;;;;2.78;100.00;98280.59;5055360;28;20257;-57
2023/12/11 01:13:24;;;;;;;33.90;17.95;;;;;;;2.83;100.00;98265.91;5055336;28;20319;-57
2023/12/11 01:15:50;;;;;;;37.75;18.35;;;;;;;2.63;100.00;98217.31;5055369;28;20182;-57
2023/12/11 01:18:15;;;;;;;37.55;17.73;;;;;;;2.73;100.00;98249.28;5055223;28;20192;-57
2023/12/11 01:20:41;;;;;;;33.75;17.33;;;;;;;3.05;100.00;98307.59;5055273;28;20693;-57
2023/12/11 01:23:06;;;;;;;36.00;18.40;;;;;;;2.56;100.00;98204.91;5055209;28;20742;-57
2023/12/11 01:25:31;;;;;;;38.42;19.02;;;;;;;2.59;100.00;98202.19;5055134;28;20184;-57
2023/12/11 01:27:57;;;;;;;37.10;18.52;;;;;;;2.53;100.00;98195.63;5055054;28;20193;-57
2023/12/11 01:30:23;;;;;;;34.97;18.52;;;;;;;2.96;100.00;98282.41;5055126;28;20213;-57
2023/12/11 01:32:48;;;;;;;39.58;19.02;;;;;;;2.97;100.00;98286.63;5055341;28;20217;-57
2023/12/11 01:35:14;;;;;;;39.92;20.15;;;;;;;2.24;100.00;98201.06;5054970;28;20178;-57
2023/12/11 01:37:42;;;;;;;38.63;20.83;;;;;;;2.49;100.00;98234.94;5054927;28;20177;-57
2023/12/11 01:40:09;;;;;;;39.85;20.63;;;;;;;2.99;100.00;98299.34;5054914;28;20204;-57
2023/12/11 01:42:34;;;;;;;38.17;19.33;;;;;;;2.60;100.00;98229.41;5052266;28;20185;-57
2023/12/11 01:45:00;;;;;;;31.95;17.23;;;;;;;2.62;100.00;98210.56;5052390;28;20191;-57
2023/12/11 01:47:26;;;;;;;37.65;18.60;;;;;;;2.99;100.00;98266.94;5052265;28;20804;-57
2023/12/11 01:49:51;;;;;;;38.92;20.05;;;;;;;2.66;100.00;98207.00;5052290;28;20190;-57
2023/12/11 01:52:18;;;;;;;35.50;18.02;;;;;;;3.25;100.00;98304.19;5052194;28;20182;-57
2023/12/11 01:54:44;;;;;;;35.75;19.50;;;;;;;2.86;100.00;98214.69;5052285;28;20269;-57
2023/12/11 01:57:09;;;;;;;35.65;18.13;;;;;;;3.41;100.00;98303.53;5052158;28;20186;-57
2023/12/11 01:59:37;;;;;;;35.97;17.77;;;;;;;3.31;100.00;98273.28;5052221;28;20182;-57
2023/12/11 02:02:03;;;;;;;40.78;20.33;;;;;;;3.48;100.00;98294.69;5052038;28;20269;-57
2023/12/11 02:04:30;;;;;;;48.65;21.38;;;;;;;3.30;100.00;98253.72;5052078;28;20591;-57
2023/12/11 02:06:56;;;;;;;41.03;20.80;;;;;;;3.55;100.00;98290.97;5051952;28;20201;-57
2023/12/11 02:09:22;;;;;;;38.90;19.75;;;;;;;3.07;100.00;98205.28;5051891;28;20221;-57
2023/12/11 02:11:48;;;;;;;39.47;19.90;;;;;;;3.01;100.00;98211.50;5051932;28;20178;-57
2023/12/11 02:14:13;;;;;;;42.63;21.27;;;;;;;3.48;100.00;98284.47;5053704;28;20197;-57
2023/12/11 02:16:39;;;;;;;39.50;20.00;;;;;;;3.41;100.00;98287.34;5054282;28;20181;-57
2023/12/11 02:19:04;;;;;;;44.35;20.25;;;;;;;2.96;100.00;98205.75;5054004;28;20597;-57
2023/12/11 02:21:30;;;;;;;43.15;20.45;;;;;;;3.43;100.00;98288.94;5053892;28;20209;-57
2023/12/11 02:24:20;;;;;;;38.83;19.80;;;;;;;3.53;100.00;98282.56;5054096;28;20184;-57
2023/12/11 02:26:46;;;;;;;41.38;20.63;;;;;;;3.46;100.00;98286.28;5054012;28;20687;-57
2023/12/11 02:29:11;;;;;;;42.30;21.20;;;;;;;3.52;100.00;98285.16;5053985;28;20315;-57
2023/12/11 02:31:37;;;;;;;40.45;19.98;;;;;;;3.50;100.00;98257.09;5054005;28;20174;-57
2023/12/11 02:34:03;;;;;;;38.50;18.30;;;;;;;3.03;100.00;98191.81;5053651;28;20554;-57
2023/12/11 02:36:28;;;;;;;37.17;18.42;;;;;;;3.58;100.00;98285.75;5053861;28;20170;-57
2023/12/11 02:38:54;;;;;;;37.28;19.00;;;;;;;3.32;100.00;98265.53;5053595;28;20236;-56
2023/12/11 02:41:19;;;;;;;32.53;18.63;;;;;;;3.10;100.00;98229.00;5051152;28;20185;-57
2023/12/11 02:43:45;;;;;;;36.17;18.70;;;;;;;3.18;100.00;98232.06;5051194;28;20198;-57
2023/12/11 02:46:10;;;;;;;36.47;19.20;;;;;;;3.17;100.00;98243.19;5051312;28;20186;-57
2023/12/11 02:48:36;;;;;;;37.75;18.90;;;;;;;3.36;100.00;98274.75;5051147;28;20205;-57
2023/12/11 02:51:01;;;;;;;39.22;17.75;;;;;;;3.20;100.00;98249.91;5070888;28;20712;-57
2023/12/11 02:53:27;;;;;;;37.03;18.25;;;;;;;2.83;100.00;98194.38;5071091;28;20192;-57
2023/12/11 02:55:52;;;;;;;37.20;17.08;;;;;;;3.35;100.00;98293.56;5070984;28;20180;-57
2023/12/11 02:58:17;;;;;;;38.33;17.25;;;;;;;3.09;100.00;98244.41;5071025;28;20181;-57
2023/12/11 03:00:43;;;;;;;31.05;16.77;;;;;;;2.82;100.00;98202.94;5070941;28;20227;-57
2023/12/11 03:03:09;;;;;;;32.42;17.10;;;;;;;3.17;100.00;98260.25;5071195;28;20566;-57
2023/12/11 03:05:35;;;;;;;33.35;17.48;;;;;;;3.25;100.00;98279.47;5070770;28;20268;-57
2023/12/11 03:08:04;;;;;;;34.00;16.30;;;;;;;3.11;100.00;98276.69;5070742;28;20687;-57
2023/12/11 03:10:30;;;;;;;35.17;18.20;;;;;;;2.91;100.00;98235.75;5070771;28;20197;-56
2023/12/11 03:12:56;;;;;;;34.88;17.80;;;;;;;2.66;100.00;98214.66;5070763;28;20246;-57
2023/12/11 03:15:21;;;;;;;34.45;17.30;;;;;;;2.92;100.00;98250.19;5070704;28;20180;-57
2023/12/11 03:17:47;;;;;;;31.48;17.35;;;;;;;3.25;100.00;98310.16;5070732;28;20261;-57
2023/12/11 03:20:12;;;;;;;33.50;17.30;;;;;;;2.98;100.00;98283.16;5070600;28;20173;-57
2023/12/11 03:22:38;;;;;;;33.38;18.15;;;;;;;2.96;100.00;98253.44;5056715;28;20201;-57
2023/12/11 03:25:04;;;;;;;31.63;16.35;;;;;;;3.06;100.00;98259.84;5052901;28;20178;-57
2023/12/11 03:27:29;;;;;;;35.03;17.17;;;;;;;3.14;100.00;98306.38;5052747;28;20213;-57
2023/12/11 03:29:55;;;;;;;30.27;16.27;;;;;;;3.10;100.00;98310.78;5052897;28;20598;-57
2023/12/11 03:32:20;;;;;;;30.70;16.48;;;;;;;2.86;100.00;98281.09;5051761;28;20260;-57
2023/12/11 03:34:46;;;;;;;34.75;18.48;;;;;;;2.38;100.00;98211.53;5050096;28;20215;-57
2023/12/11 03:37:12;;;;;;;38.60;16.90;;;;;;;2.81;100.00;98295.78;5050239;28;20190;-57
2023/12/11 03:39:37;;;;;;;35.53;16.58;;;;;;;2.83;100.00;98291.44;5050247;28;20273;-57
2023/12/11 03:42:03;;;;;;;33.33;16.83;;;;;;;2.86;100.00;98314.31;5069909;28;20713;-57
2023/12/11 03:44:29;;;;;;;32.53;17.20;;;;;;;2.23;100.00;98211.31;5070102;28;20177;-57
2023/12/11 03:46:54;;;;;;;32.85;16.60;;;;;;;2.13;100.00;98215.09;5070020;28;20204;-57
2023/12/11 03:49:20;;;;;;;40.28;21.85;;;;;;;2.69;100.00;98310.78;5069991;28;20247;-57
2023/12/11 03:51:46;;;;;;;39.67;19.58;;;;;;;2.61;100.00;98295.72;5069955;28;20193;-57
2023/12/11 03:54:11;;;;;;;39.38;23.27;;;;;;;2.37;100.00;98281.38;5069945;28;20193;-57
2023/12/11 03:56:39;;;;;;;41.35;22.67;;;;;;;2.04;100.00;98239.25;5069815;28;20185;-57
2023/12/11 03:59:05;;;;;;;35.35;19.85;;;;;;;2.61;100.00;98326.38;5069810;28;20215;-58
2023/12/11 04:01:31;;;;;;;38.92;20.48;;;;;;;2.13;100.00;98236.34;5069777;28;20213;-57
2023/12/11 04:03:56;;;;;;;35.70;18.83;;;;;;;2.26;100.00;98259.66;5069749;28;20691;-57
2023/12/11 04:06:22;;;;;;;40.78;17.67;;;;;;;2.05;100.00;98223.03;5069674;28;20268;-57
2023/12/11 04:08:47;;;;;;;35.38;18.10;;;;;;;2.39;100.00;98304.28;5069447;28;20686;-57
2023/12/11 04:11:13;;;;;;;35.80;17.77;;;;;;;2.48;100.00;98324.34;5069614;28;20527;-57
2023/12/11 04:13:38;;;;;;;36.00;18.85;;;;;;;2.42;100.00;98342.44;5055917;28;20181;-57
2023/12/11 04:16:05;;;;;;;32.97;17.85;;;;;;;2.18;100.00;98330.59;5052028;28;20608;-57
2023/12/11 04:18:31;;;;;;;35.65;18.25;;;;;;;1.62;100.00;98222.97;5051853;28;20232;-57
2023/12/11 04:20:57;;;;;;;40.53;18.83;;;;;;;2.02;100.00;98291.22;5051629;28;20208;-58
2023/12/11 04:23:23;;;;;;;32.75;17.40;;;;;;;2.24;100.00;98325.25;5051856;28;20324;-58
2023/12/11 04:25:49;;;;;;;38.55;20.27;;;;;;;2.26;100.00;98323.47;5051844;28;20550;-57
2023/12/11 04:28:14;;;;;;;38.40;18.70;;;;;;;2.20;100.00;98328.81;5051657;28;20212;-57
2023/12/11 04:30:40;;;;;;;33.17;16.63;;;;;;;1.70;100.00;98238.00;5051802;28;20177;-57
2023/12/11 04:33:05;;;;;;;36.30;17.08;;;;;;;1.74;100.00;98286.28;5051692;28;20632;-58
2023/12/11 04:35:31;;;;;;;33.72;16.95;;;;;;;2.03;100.00;98334.53;5051700;28;20264;-57
2023/12/11 04:37:56;;;;;;;36.25;19.08;;;;;;;1.73;100.00;98292.28;5051658;28;20173;-57
2023/12/11 04:40:22;;;;;;;39.75;18.83;;;;;;;1.82;100.00;98289.38;5051612;28;20174;-57
2023/12/11 04:42:47;;;;;;;40.15;17.50;;;;;;;2.03;100.00;98298.81;5051611;28;20252;-57
2023/12/11 04:45:13;;;;;;;35.50;17.90;;;;;;;1.52;100.00;98213.97;5051238;28;20184;-57
2023/12/11 04:47:38;;;;;;;36.65;18.30;;;;;;;2.11;100.00;98309.56;5051409;28;20201;-58
2023/12/11 04:50:04;;;;;;;37.97;17.20;;;;;;;1.95;100.00;98303.38;5051460;28;20173;-57
2023/12/11 04:52:30;;;;;;;32.90;17.13;;;;;;;1.82;100.00;98263.88;5051475;28;20253;-57
2023/12/11 04:54:57;;;;;;;34.47;17.23;;;;;;;1.97;100.00;98275.22;5051162;28;20185;-57
2023/12/11 04:57:22;;;;;;;31.35;15.88;;;;;;;2.31;100.00;98330.09;5051419;28;20185;-57
2023/12/11 04:59:48;;;;;;;32.22;16.13;;;;;;;1.83;100.00;98240.06;5028830;28;20186;-57
2023/12/11 05:02:14;;;;;;;26.85;14.65;;;;;;;2.14;100.00;98290.75;5028910;28;20182;-57
2023/12/11 05:04:39;;;;;;;27.35;15.65;;;;;;;2.32;100.00;98321.53;5028970;28;20592;-57
2023/12/11 05:07:06;;;;;;;34.72;17.45;;;;;;;2.42;100.00;98322.88;5028933;28;20217;-57
2023/12/11 05:09:31;;;;;;;35.95;16.80;;;;;;;2.06;100.00;98255.31;5028967;28;20204;-57
2023/12/11 05:11:57;;;;;;;30.30;15.90;;;;;;;2.31;100.00;98311.38;5028955;28;20170;-57
2023/12/11 05:14:22;;;;;;;33.88;18.02;;;;;;;1.86;100.00;98257.78;5029172;28;20218;-57
2023/12/11 05:16:48;;;;;;;34.60;16.20;;;;;;;2.27;100.00;98351.50;5028976;28;20189;-57
2023/12/11 05:19:13;;;;;;;35.78;17.50;;;;;;;2.35;100.00;98364.00;5028688;28;20222;-57
2023/12/11 05:21:43;;;;;;;36.38;18.20;;;;;;;1.40;100.00;98277.31;5028947;28;20228;-57
2023/12/11 05:24:08;;;;;;;36.65;19.30;;;;;;;1.83;100.00;98329.31;5028914;28;20248;-57
2023/12/11 05:26:34;;;;;;;34.72;17.45;;;;;;;1.45;100.00;98280.50;5028853;28;20265;-57
2023/12/11 05:29:00;;;;;;;32.17;18.27;;;;;;;1.16;100.00;98289.16;5028819;28;20683;-57
2023/12/11 05:31:26;;;;;;;36.78;17.90;;;;;;;1.03;100.00;98289.59;5045638;28;20660;-57
2023/12/11 05:33:51;;;;;;;35.70;18.40;;;;;;;1.26;100.00;98322.81;5051058;28;20173;-57
2023/12/11 05:36:17;;;;;;;35.88;19.10;;;;;;;0.94;100.00;98257.63;5051049;28;20174;-57
2023/12/11 05:38:42;;;;;;;43.50;18.38;;;;;;;1.11;100.00;98270.66;5051032;28;20174;-57
2023/12/11 05:41:08;;;;;;;36.50;17.83;;;;;;;1.34;100.00;98293.63;5050774;28;20170;-57
2023/12/11 05:43:33;;;;;;;34.92;17.95;;;;;;;1.80;100.00;98343.88;5050981;28;20177;-57
2023/12/11 05:45:58;;;;;;;32.08;17.27;;;;;;;1.05;100.00;98239.47;5048373;28;20672;-57
2023/12/11 05:48:24;;;;;;;35.28;17.10;;;;;;;1.01;100.00;98235.34;5048512;28;20217;-57
2023/12/11 05:50:49;;;;;;;34.03;17.05;;;;;;;1.36;100.00;98326.72;5048496;28;20268;-57
2023/12/11 05:53:15;;;;;;;36.03;18.23;;;;;;;1.10;100.00;98283.44;5048392;28;20197;-58
2023/12/11 05:55:41;;;;;;;36.80;18.63;;;;;;;1.33;100.00;98326.81;5050956;28;20178;-56
2023/12/11 05:58:06;;;;;;;41.30;19.10;;;;;;;1.52;100.00;98331.25;5052256;28;20189;-58
2023/12/11 06:00:31;;;;;;;39.85;19.50;;;;;;;1.36;100.00;98279.13;5052133;28;20190;-56
2023/12/11 06:02:57;;;;;;;40.22;18.45;;;;;;;1.26;100.00;98249.75;5051937;28;20725;-56
2023/12/11 06:05:22;;;;;;;40.40;18.35;;;;;;;1.40;100.00;98288.34;5052007;28;20186;-56
2023/12/11 06:07:48;;;;;;;34.33;17.48;;;;;;;1.30;100.00;98253.03;5051974;28;20796;-56
2023/12/11 06:10:13;;;;;;;39.53;19.70;;;;;;;1.76;100.00;98316.84;5052012;28;20188;-56
2023/12/11 06:12:39;;;;;;;37.58;18.02;;;;;;;1.42;100.00;98240.66;5051881;28;20648;-57
2023/12/11 06:15:05;;;;;;;40.20;19.20;;;;;;;2.00;100.00;98319.31;5051868;28;20656;-57
2023/12/11 06:17:30;;;;;;;34.90;16.75;;;;;;;1.95;100.00;98308.47;5031434;28;20197;-56
2023/12/11 06:19:56;;;;;;;35.53;17.90;;;;;;;1.68;100.00;98240.59;5031922;28;20544;-56
2023/12/11 06:22:24;;;;;;;37.47;18.63;;;;;;;1.80;100.00;98246.94;5031799;28;20182;-58
2023/12/11 06:24:50;;;;;;;38.58;18.40;;;;;;;2.49;100.00;98351.53;5031797;28;20182;-57
2023/12/11 06:27:15;;;;;;;40.90;19.95;;;;;;;2.24;100.00;98310.78;4972652;28;20298;-57
2023/12/11 06:29:46;;;;;;;50.58;22.23;;;;;;;2.26;100.00;98319.22;4972578;28;20201;-59
2023/12/11 06:32:12;;;;;;;49.92;23.02;;;;;;;2.49;100.00;98347.28;4972684;28;20201;-57
2023/12/11 06:34:38;;;;;;;64.55;29.75;;;;;;;2.59;100.00;98353.72;4953079;28;20197;-56
2023/12/11 06:37:03;;;;;;;75.63;35.75;;;;;;;2.41;100.00;98312.72;4947430;28;20220;-57
2023/12/11 06:39:30;;;;;;;73.82;33.33;;;;;;;2.20;100.00;98263.28;4943624;28;20193;-57
2023/12/11 06:41:55;;;;;;;67.68;30.42;;;;;;;2.74;100.00;98326.75;4943909;28;20225;-57
2023/12/11 06:44:21;;;;;;;61.00;27.63;;;;;;;3.00;100.00;98370.00;4942274;28;20229;-57
2023/12/11 06:46:46;;;;;;;64.72;29.65;;;;;;;2.65;100.00;98289.63;4919395;29;20198;-57
2023/12/11 06:49:12;;;;;;;62.92;31.13;;;;;;;2.84;100.00;98308.44;4924448;29;20201;-57
2023/12/11 06:51:38;;;;;;;61.92;28.42;;;;;;;3.06;100.00;98339.91;4923278;29;20202;-57
2023/12/11 06:54:04;;;;;;;59.58;28.45;;;;;;;2.79;100.00;98281.41;4929576;28;20566;-57
2023/12/11 06:56:32;;;;;;;66.70;29.60;;;;;;;3.09;100.00;98328.75;4962435;28;20200;-57
2023/12/11 06:58:58;;;;;;;59.90;27.70;;;;;;;3.21;100.00;98326.50;4984590;28;20246;-57
2023/12/11 07:01:31;;;;;;;65.95;28.60;;;;;;;3.17;100.00;98302.00;4991226;28;20195;-57
2023/12/11 07:03:59;;;;;;;61.65;27.13;;;;;;;3.47;100.00;98346.75;4963445;28;20818;-60
2023/12/11 07:06:28;;;;;;;62.90;27.52;;;;;;;3.50;100.00;98349.16;4960499;28;20197;-57
2023/12/11 07:08:54;;;;;;;65.70;29.50;;;;;;;3.27;100.00;98303.25;4961313;28;20212;-56
2023/12/11 07:11:20;;;;;;;63.13;27.92;;;;;;;3.54;100.00;98355.81;4961559;28;20195;-57
2023/12/11 07:13:45;;;;;;;59.63;28.25;;;;;;;3.47;100.00;98317.78;4955517;28;20302;-57
2023/12/11 07:16:11;;;;;;;66.82;29.73;;;;;;;3.51;100.00;98352.56;4952739;29;20192;-56
2023/12/11 07:18:38;;;;;;;65.60;28.88;;;;;;;3.07;100.00;98266.63;5001909;28;20199;-56
2023/12/11 07:21:11;;;;;;;66.43;30.17;;;;;;;3.61;100.00;98366.63;5010904;28;20237;-56
2023/12/11 07:23:37;;;;;;;62.88;31.70;;;;;;;3.67;100.00;98380.00;5015177;28;20186;-57
2023/12/11 07:26:08;;;;;;;60.15;29.35;;;;;;;3.22;100.00;98291.56;5030461;28;20240;-56
2023/12/11 07:28:36;;;;;;;58.22;27.30;;;;;;;3.65;100.00;98376.66;5030585;28;20716;-56
2023/12/11 07:31:04;;;;;;;58.78;27.73;;;;;;;3.53;100.00;98350.75;5028378;28;20226;-56
2023/12/11 07:33:29;;;;;;;59.15;28.08;;;;;;;3.28;100.00;98294.69;5019985;28;20203;-56
2023/12/11 07:35:55;;;;;;;64.15;28.73;;;;;;;3.41;100.00;98303.53;5032057;28;20182;-56
2023/12/11 07:38:21;;;;;;;54.80;28.85;;;;;;;3.34;100.00;98281.63;5032570;28;20182;-56
2023/12/11 07:40:46;;;;;;;49.88;24.75;;;;;;;3.27;100.00;98298.13;5032277;28;20257;-56
2023/12/11 07:43:12;;;;;;;53.35;25.17;;;;;;;3.25;100.00;98322.94;5031970;28;20202;-56
2023/12/11 07:45:37;;;;;;;51.03;25.45;;;;;;;3.76;100.00;98382.19;5032568;28;20644;-56
2023/12/11 07:48:03;;;;;;;58.03;25.90;;;;;;;3.81;100.00;98390.50;5032274;28;20206;-56
2023/12/11 07:50:29;;;;;;;51.33;24.70;;;;;;;3.47;100.00;98318.63;5032376;28;20178;-57
2023/12/11 07:52:54;;;;;;;55.67;26.17;;;;;;;3.74;100.00;98389.06;5032621;28;20228;-56
2023/12/11 07:55:20;;;;;;;55.28;26.48;;;;;;;3.01;100.00;98280.50;5032496;28;20560;-56
2023/12/11 07:57:45;;;;;;;61.00;28.42;;;;;;;2.38;100.00;98219.19;5031980;28;20179;-56
2023/12/11 08:00:11;;;;;;;54.20;26.58;;;;;;;3.65;100.00;98386.91;5032136;28;20166;-56
2023/12/11 08:02:37;;;;;;;58.80;28.38;;;;;;;3.24;100.00;98282.09;5031870;28;20182;-56
2023/12/11 08:05:03;;;;;;;61.25;29.30;;;;;;;3.50;100.00;98374.72;5031964;28;20240;-56
2023/12/11 08:07:30;;;;;;;59.95;29.05;;;;;;;3.37;100.00;98347.16;5031889;28;20686;-56
2023/12/11 08:09:55;;;;;;;52.17;25.30;;;;;;;3.01;100.00;98311.16;5041678;28;20698;-56
2023/12/11 08:12:21;;;;;;;48.45;24.08;;;;;;;2.88;100.00;98276.78;5051768;28;20174;-56
2023/12/11 08:14:46;;;;;;;54.08;27.42;;;;;;;3.49;100.00;98375.63;5051845;28;20602;-56
2023/12/11 08:17:12;;;;;;;52.70;27.42;;;;;;;2.98;100.00;98321.50;5051331;28;21553;-57
2023/12/11 08:19:37;;;;;;;59.22;26.98;;;;;;;3.19;100.00;98341.09;5051888;28;20283;-57
2023/12/11 08:22:03;;;;;;;62.92;29.33;;;;;;;3.25;100.00;98347.66;5068968;28;20193;-57
2023/12/11 08:24:28;;;;;;;76.75;31.60;;;;;;;2.89;100.00;98295.47;5068996;28;20189;-57
2023/12/11 08:26:54;;;;;;;69.18;30.30;;;;;;;3.12;100.00;98383.13;5069006;28;20212;-57
2023/12/11 08:29:23;;;;;;;70.55;29.92;;;;;;;2.77;100.00;98311.28;5069114;28;20187;-57
2023/12/11 08:31:49;;;;;;;55.00;25.77;;;;;;;2.52;100.00;98279.94;5048863;28;20659;-57
2023/12/11 08:34:15;;;;;;;55.03;25.55;;;;;;;2.55;100.00;98290.88;5048987;28;20214;-58
2023/12/11 08:36:41;;;;;;;51.72;25.35;;;;;;;2.74;100.00;98325.00;5009128;28;20424;-57
2023/12/11 08:39:06;;;;;;;57.08;26.60;;;;;;;3.30;100.00;98386.66;5009543;28;20665;-57
2023/12/11 08:41:33;;;;;;;52.17;25.80;;;;;;;3.37;100.00;98378.69;5008671;28;20657;-58
2023/12/11 08:43:59;;;;;;;47.83;22.77;;;;;;;3.09;100.00;98309.13;5008820;28;20550;-58
2023/12/11 08:46:24;;;;;;;40.42;21.55;;;;;;;3.06;100.00;98322.03;5008867;28;20194;-57
2023/12/11 08:48:50;;;;;;;47.03;22.33;;;;;;;3.03;100.00;98322.13;5008924;28;20237;-58
2023/12/11 08:51:19;;;;;;;42.38;21.98;;;;;;;3.35;100.00;98341.28;5008869;28;20230;-58
2023/12/11 08:53:45;;;;;;;44.05;20.55;;;;;;;3.60;100.00;98344.50;5008940;28;20648;-58
2023/12/11 08:56:11;;;;;;;51.25;24.10;;;;;;;3.23;100.00;98301.72;5008871;28;20226;-58
2023/12/11 08:58:37;;;;;;;49.80;23.90;;;;;;;3.68;100.00;98348.38;5008715;28;20256;-58
2023/12/11 09:01:03;;;;;;;52.97;24.73;;;;;;;3.61;100.00;98326.53;5007440;28;20171;-58
2023/12/11 09:03:29;;;;;;;49.80;23.95;;;;;;;3.19;100.00;98269.50;5008536;28;20273;-57
2023/12/11 09:05:54;;;;;;;51.95;24.25;;;;;;;3.65;100.00;98357.91;4989540;28;20278;-57
2023/12/11 09:08:20;;;;;;;49.13;24.48;;;;;;;3.02;100.00;98274.47;5019594;28;20257;-57
2023/12/11 09:10:46;;;;;;;47.63;21.90;;;;;;;3.52;100.00;98339.72;5028733;28;20609;-57
2023/12/11 09:13:11;;;;;;;46.25;24.15;;;;;;;3.79;100.00;98343.66;5028196;28;20178;-57
2023/12/11 09:15:37;;;;;;;53.08;25.10;;;;;;;4.10;100.00;98349.13;5029125;28;20174;-57
2023/12/11 09:18:02;;;;;;;53.75;25.98;;;;;;;4.15;100.00;98352.28;5028690;28;20206;-57
2023/12/11 09:20:28;;;;;;;56.42;25.80;;;;;;;4.21;100.00;98334.09;5028885;28;20759;-57
2023/12/11 09:22:54;;;;;;;53.97;25.52;;;;;;;4.22;100.00;98345.19;5028751;28;20175;-57
2023/12/11 09:25:19;;;;;;;58.22;27.80;;;;;;;4.16;100.00;98336.06;5028779;28;20273;-57
2023/12/11 09:27:45;;;;;;;82.45;38.55;;;;;;;3.93;100.00;98322.59;5028649;28;20210;-57
2023/12/11 09:30:10;;;;;;;59.78;30.30;;;;;;;3.79;100.00;98266.09;5010667;28;20281;-57
2023/12/11 09:32:36;;;;;;;59.72;29.25;;;;;;;3.99;100.00;98277.09;5012865;28;20191;-57
2023/12/11 09:35:02;;;;;;;63.97;28.98;;;;;;;3.61;100.00;98242.13;5013136;28;20190;-57
2023/12/11 09:37:28;;;;;;;58.80;28.42;;;;;;;4.16;100.00;98338.63;5012722;28;20206;-57
2023/12/11 09:39:54;;;;;;;67.53;30.85;;;;;;;3.85;100.00;98287.09;5012779;28;20187;-57
2023/12/11 09:42:20;;;;;;;62.88;29.88;;;;;;;3.98;100.00;98321.47;5014357;28;20215;-57
2023/12/11 09:44:47;;;;;;;62.42;28.73;;;;;;;3.80;100.00;98276.22;5032468;28;20596;-57
2023/12/11 09:47:26;;;;;;;64.70;29.92;;;;;;;3.58;100.00;98247.38;5032322;28;20608;-57
2023/12/11 09:49:52;;;;;;;68.40;29.80;;;;;;;4.16;100.00;98325.81;5032487;28;20617;-57
2023/12/11 09:52:18;;;;;;;63.95;33.63;;;;;;;3.45;100.00;98228.31;5032365;28;20182;-58
2023/12/11 09:54:44;;;;;;;60.65;30.50;;;;;;;3.54;100.00;98245.84;5032165;28;20193;-58
2023/12/11 09:57:12;;;;;;;59.30;28.92;;;;;;;4.18;100.00;98321.44;5032491;28;20182;-58
2023/12/11 09:59:38;;;;;;;66.20;29.70;;;;;;;3.65;100.00;98233.41;5032247;28;20182;-57
2023/12/11 10:02:08;;;;;;;66.13;30.08;;;;;;;3.85;100.00;98235.91;5032137;28;20218;-57
2023/12/11 10:04:33;;;;;;;68.15;32.08;;;;;;;4.44;100.00;98302.34;5032138;28;20178;-59
2023/12/11 10:06:59;;;;;;;58.63;30.10;;;;;;;4.21;100.00;98230.88;4992440;28;20737;-58
2023/12/11 10:09:31;;;;;;;60.63;29.70;;;;;;;4.64;100.00;98262.09;4992755;28;20283;-57
2023/12/11 10:12:00;;;;;;;61.72;29.73;;;;;;;4.68;100.00;98227.75;4992561;28;20286;-57
2023/12/11 10:14:28;;;;;;;66.25;30.17;;;;;;;4.87;100.00;98231.06;4992762;28;20183;-57
2023/12/11 10:16:54;;;;;;;58.15;29.60;;;;;;;4.85;100.00;98214.09;4992402;28;20314;-57
2023/12/11 10:19:31;;;;;;;60.35;29.75;;;;;;;5.13;100.00;98245.19;4992306;28;20282;-57
2023/12/11 10:21:56;;;;;;;59.10;28.42;;;;;;;5.01;100.00;98213.25;4992480;28;20211;-57
2023/12/11 10:24:22;;;;;;;53.00;28.25;;;;;;;5.58;100.00;98312.97;4992398;28;20200;-57
2023/12/11 10:26:55;;;;;;;58.95;29.02;;;;;;;5.68;100.00;98303.91;4972635;28;20287;-57
2023/12/11 10:29:30;;;;;;;60.00;31.77;;;;;;;5.49;100.00;98248.47;4972897;28;20271;-57
2023/12/11 10:32:03;;;;;;;61.60;31.40;;;;;;;5.59;100.00;98273.56;4972647;28;20221;-57
2023/12/11 10:34:42;;;;;;;72.70;32.25;;;;;;;5.63;100.00;98259.69;4972793;28;20184;-57
2023/12/11 10:37:10;;;;;;;61.67;30.00;;;;;;;5.93;100.00;98294.06;4972582;28;20287;-57
2023/12/11 10:42:59;;;;;;;64.07;31.45;;;;;;;6.06;100.00;98271.97;4972936;28;20618;-57
2023/12/11 10:45:25;;;;;;;63.72;32.70;;;;;;;6.34;100.00;98279.88;5025783;28;20212;-57
2023/12/11 10:47:50;;;;;;;60.10;31.08;;;;;;;6.25;100.00;98236.72;5021832;28;20281;-57
2023/12/11 10:50:16;;;;;;;60.50;28.75;;;;;;;6.61;100.00;98275.81;5011555;28;20179;-57
2023/12/11 10:52:42;;;;;;;56.63;26.80;;;;;;;6.49;100.00;98248.22;5011589;28;20290;-57
2023/12/11 10:55:08;;;;;;;58.88;29.20;;;;;;;6.67;100.00;98256.66;5011575;28;20591;-57
2023/12/11 10:57:33;;;;;;;55.78;27.90;;;;;;;6.59;100.00;98212.56;5020243;28;20194;-57
2023/12/11 10:59:59;;;;;;;50.03;27.38;;;;;;;6.89;100.00;98245.09;5033555;28;20185;-57
2023/12/11 11:02:26;;;;;;;51.15;26.70;;;;;;;6.76;100.00;98204.72;5033595;28;20652;-57
2023/12/11 11:04:52;;;;;;;45.80;24.20;;;;;;;6.93;100.00;98210.56;5033534;28;20170;-57
2023/12/11 11:07:32;;;;;;;50.60;24.52;;;;;;;6.41;100.00;98134.72;5033390;28;20207;-57
2023/12/11 11:10:10;;;;;;;43.33;23.10;;;;;;;6.82;100.00;98220.63;5033230;28;20174;-57
2023/12/11 11:12:57;;;;;;;44.70;24.60;;;;;;;6.83;100.00;98222.25;5033444;28;20551;-57
2023/12/11 11:15:27;;;;;;;45.95;22.85;;;;;;;6.37;100.00;98166.66;5033079;28;20239;-57